Las Vegas, Nevada
Traffic Map
Current Weather Conditions
Las Vegas, Nevada
Clear
Clear
86°
Feels Like: 86°
Wind Chill: 86° Ceiling: Unl
Heat Index: 86° Visibility: 10mi
Dew Point: 22° Wind: 3mph
Humidity: 10% Direction: 160° (SSE)
Pressure: 29.88in Gusts: 0mph
Raw Report DataKLAS 221456Z 16003KT 10SM CLR 30/M06 A2988 RMK AO2 SLP084 T03001056 51020
Traffic Incident Summary
Active as of:
Severity:
Category:
InformationThere was an issue retrieving the traffic information for this location. Please try a different location or try again shortly.
Advertisements